createdAt,value
2023-04-11T00:00:09.096Z,11.38
2023-04-11T00:02:41.809Z,11.30
2023-04-11T00:08:00.909Z,11.36
2023-04-11T00:10:28.761Z,11.12
2023-04-11T00:12:57.382Z,11.05
2023-04-11T00:15:32.612Z,11.14
2023-04-11T00:18:05.740Z,11.21
2023-04-11T00:20:32.738Z,11.25
2023-04-11T00:23:04.698Z,11.22
2023-04-11T00:25:33.145Z,11.36
2023-04-11T00:28:26.043Z,11.35
2023-04-11T00:30:52.749Z,11.29
2023-04-11T00:33:20.787Z,11.23
2023-04-11T00:35:48.847Z,11.23
2023-04-11T00:38:16.743Z,11.32
2023-04-11T00:40:44.916Z,11.10
2023-04-11T00:43:21.702Z,11.18
2023-04-11T00:45:48.886Z,11.35
2023-04-11T00:51:08.980Z,11.22
2023-04-11T00:53:41.421Z,11.00
2023-04-11T00:56:11.213Z,11.11
2023-04-11T00:58:40.829Z,11.11
2023-04-11T01:01:16.593Z,11.14
2023-04-11T01:03:45.602Z,11.10
2023-04-11T01:06:19.785Z,11.10
2023-04-11T01:08:47.553Z,11.15
2023-04-11T01:14:10.680Z,10.97
2023-04-11T01:16:38.712Z,11.14
2023-04-11T01:19:07.155Z,11.10
2023-04-11T01:24:28.682Z,11.10
2023-04-11T01:27:01.758Z,11.21
2023-04-11T01:29:28.712Z,11.05
2023-04-11T01:32:01.744Z,11.08
2023-04-11T01:34:54.815Z,11.04
2023-04-11T01:37:27.975Z,11.05
2023-04-11T01:39:54.982Z,11.11
2023-04-11T01:45:32.887Z,11.01
2023-04-11T01:48:07.074Z,11.11
2023-04-11T01:50:34.888Z,10.98
2023-04-11T01:53:06.696Z,11.00
2023-04-11T01:55:34.684Z,10.97
2023-04-11T01:58:02.696Z,11.02
2023-04-11T02:00:35.732Z,11.16
2023-04-11T02:03:03.515Z,11.02
2023-04-11T02:05:57.046Z,10.90
2023-04-11T02:08:24.708Z,10.70
2023-04-11T02:14:44.358Z,10.47
2023-04-11T02:23:09.550Z,10.56
2023-04-11T02:25:37.175Z,10.57
2023-04-11T02:30:57.080Z,10.55
2023-04-11T02:33:30.774Z,10.24
2023-04-11T02:35:58.729Z,10.40
2023-04-11T02:38:26.745Z,10.26
2023-04-11T02:41:00.173Z,10.39
2023-04-11T02:43:28.709Z,10.42
2023-04-11T02:46:11.726Z,10.33
2023-04-11T02:48:41.131Z,10.42
2023-04-11T02:51:09.717Z,10.32
2023-04-11T02:54:02.674Z,10.37
2023-04-11T02:56:30.924Z,10.40
2023-04-11T03:01:55.845Z,10.30
2023-04-11T03:04:22.764Z,10.18
2023-04-11T03:07:03.800Z,10.11
2023-04-11T03:09:30.788Z,10.01
2023-04-11T03:11:58.746Z,10.22
2023-04-11T03:14:50.685Z,10.35
2023-04-11T03:17:45.769Z,10.01
2023-04-11T03:21:03.734Z,9.97
2023-04-11T03:23:37.718Z,9.90
2023-04-11T03:26:05.841Z,10.05
2023-04-11T03:28:34.734Z,9.88
2023-04-11T03:31:02.873Z,9.88
2023-04-11T03:33:54.697Z,10.21
2023-04-11T03:36:29.539Z,10.19
2023-04-11T03:39:03.171Z,10.05
2023-04-11T03:41:31.153Z,10.08
2023-04-11T03:43:58.836Z,9.87
2023-04-11T03:46:50.832Z,9.84
2023-04-11T03:49:18.708Z,10.02
2023-04-11T03:51:52.993Z,10.04
2023-04-11T03:54:21.234Z,9.81
2023-04-11T03:57:15.023Z,9.79
2023-04-11T03:59:42.686Z,9.71
2023-04-11T04:02:12.763Z,9.59
2023-04-11T04:04:48.652Z,9.59
2023-04-11T04:07:25.744Z,9.29
2023-04-11T04:09:58.717Z,9.49
2023-04-11T04:12:26.687Z,9.50
2023-04-11T04:21:12.673Z,9.24
2023-04-11T04:23:52.515Z,9.39
2023-04-11T04:26:32.760Z,9.24
2023-04-11T04:29:23.078Z,9.47
2023-04-11T04:35:08.115Z,9.46
2023-04-11T04:37:47.498Z,9.47
2023-04-11T04:40:38.235Z,9.19
2023-04-11T04:43:09.047Z,9.19
2023-04-11T04:45:42.681Z,9.21
2023-04-11T04:48:13.125Z,9.18
2023-04-11T04:50:41.038Z,9.03
2023-04-11T04:53:16.674Z,8.83
2023-04-11T04:56:08.941Z,9.03
2023-04-11T04:59:00.739Z,8.95
2023-04-11T05:04:38.691Z,8.83
2023-04-11T05:07:16.056Z,8.77
2023-04-11T05:09:52.719Z,8.95
2023-04-11T05:12:27.202Z,8.78
2023-04-11T05:15:26.045Z,8.78
2023-04-11T05:17:54.709Z,8.86
2023-04-11T05:20:24.708Z,9.01
2023-04-11T05:22:53.393Z,8.83
2023-04-11T05:25:22.813Z,8.74
2023-04-11T05:27:52.841Z,8.90
2023-04-11T05:30:26.794Z,8.91
2023-04-11T05:33:19.815Z,8.60
2023-04-11T05:36:14.292Z,8.64
2023-04-11T05:38:43.793Z,8.63
2023-04-11T05:47:06.019Z,8.60
2023-04-11T05:49:32.656Z,8.67
2023-04-11T05:52:00.679Z,8.83
2023-04-11T05:54:33.671Z,8.95
2023-04-11T05:57:02.323Z,8.83
2023-04-11T05:59:33.123Z,8.87
2023-04-11T06:02:00.970Z,9.04
2023-04-11T06:04:28.850Z,8.83
2023-04-11T06:07:22.066Z,8.88
2023-04-11T06:09:49.102Z,9.03
2023-04-11T06:12:16.664Z,9.10
2023-04-11T06:14:53.651Z,9.00
2023-04-11T06:17:20.744Z,9.22
2023-04-11T06:19:53.665Z,9.03
2023-04-11T06:22:20.678Z,8.95
2023-04-11T06:24:49.017Z,8.93
2023-04-11T06:27:21.674Z,9.18
2023-04-11T06:29:48.687Z,9.18
2023-04-11T06:32:21.987Z,8.94
2023-04-11T06:34:48.669Z,9.04
2023-04-11T06:37:20.942Z,8.90
2023-04-11T06:39:48.660Z,9.01
2023-04-11T06:42:16.768Z,9.05
2023-04-11T06:44:50.931Z,9.10
2023-04-11T06:50:11.295Z,9.25
2023-04-11T06:52:40.744Z,9.07
2023-04-11T06:55:10.067Z,8.88
2023-04-11T06:57:36.652Z,8.91
2023-04-11T07:00:28.791Z,8.97
2023-04-11T07:03:01.862Z,9.15
2023-04-11T07:05:39.448Z,9.00
2023-04-11T07:08:11.692Z,8.95
2023-04-11T07:10:38.667Z,8.84
2023-04-11T07:13:06.696Z,8.97
2023-04-11T07:16:03.879Z,8.94
2023-04-11T07:18:31.196Z,9.14
2023-04-11T07:20:58.680Z,9.10
2023-04-11T07:23:26.828Z,9.15
2023-04-11T07:25:55.813Z,8.94
2023-04-11T07:28:23.740Z,8.87
2023-04-11T07:30:50.681Z,8.90
2023-04-11T07:33:18.701Z,8.66
2023-04-11T07:38:38.671Z,8.87
2023-04-11T07:41:13.068Z,8.83
2023-04-11T07:43:45.706Z,9.03
2023-04-11T07:46:15.030Z,9.01
2023-04-11T07:48:43.195Z,9.03
2023-04-11T07:51:11.009Z,8.77
2023-04-11T07:53:47.684Z,8.68
2023-04-11T07:56:15.623Z,8.91
2023-04-11T07:58:42.994Z,9.00
2023-04-11T08:01:21.530Z,8.91
2023-04-11T08:03:49.087Z,9.04
2023-04-11T08:06:16.707Z,8.71
2023-04-11T08:08:49.359Z,8.84
2023-04-11T08:11:16.868Z,8.94
2023-04-11T08:13:45.052Z,9.00
2023-04-11T08:16:16.815Z,9.18
2023-04-11T08:18:45.886Z,8.88
2023-04-11T08:21:12.741Z,8.95
2023-04-11T08:23:42.172Z,9.15
2023-04-11T08:26:12.784Z,9.12
2023-04-11T08:28:42.827Z,8.93
2023-04-11T08:31:13.568Z,9.00
2023-04-11T08:33:41.105Z,9.08
2023-04-11T08:36:15.008Z,9.15
2023-04-11T08:38:46.673Z,9.26
2023-04-11T08:41:19.713Z,9.19
2023-04-11T08:43:47.886Z,9.32
2023-04-11T08:46:14.810Z,9.32
2023-04-11T08:48:42.690Z,9.32
2023-04-11T08:51:12.486Z,9.43
2023-04-11T08:53:41.382Z,9.57
2023-04-11T08:56:35.537Z,9.47
2023-04-11T08:59:03.177Z,9.49
2023-04-11T09:01:37.499Z,9.63
2023-04-11T09:04:05.652Z,9.69
2023-04-11T09:06:33.731Z,9.73
2023-04-11T09:09:05.161Z,9.52
2023-04-11T09:11:51.696Z,9.26
2023-04-11T09:14:23.781Z,9.29
2023-04-11T09:16:57.621Z,9.47
2023-04-11T09:19:30.933Z,9.46
2023-04-11T09:22:06.258Z,9.42
2023-04-11T09:27:28.758Z,9.69
2023-04-11T09:29:56.767Z,9.75
2023-04-11T09:32:36.106Z,9.91
2023-04-11T09:35:20.274Z,9.87
2023-04-11T09:40:48.685Z,9.95
2023-04-11T09:43:18.355Z,9.93
2023-04-11T09:45:54.164Z,9.81
2023-04-11T09:48:32.084Z,10.11
2023-04-11T09:51:18.105Z,9.99
2023-04-11T09:54:01.979Z,10.19
2023-04-11T09:56:30.606Z,10.25
2023-04-11T09:59:05.852Z,10.21
2023-04-11T10:01:33.272Z,10.55
2023-04-11T10:04:27.911Z,10.69
2023-04-11T10:07:14.487Z,10.74
2023-04-11T10:09:43.614Z,10.66
2023-04-11T10:12:10.961Z,10.79
2023-04-11T10:14:38.812Z,10.50
2023-04-11T10:17:36.151Z,10.63
2023-04-11T10:20:43.635Z,10.43
2023-04-11T10:23:11.397Z,10.45
2023-04-11T10:26:01.265Z,10.37
2023-04-11T10:28:45.691Z,10.18
2023-04-11T10:31:17.480Z,10.11
2023-04-11T10:34:19.359Z,9.79
2023-04-11T10:37:07.769Z,9.80
2023-04-11T10:42:44.021Z,10.08
2023-04-11T10:45:24.488Z,10.12
2023-04-11T10:48:12.934Z,10.08
2023-04-11T10:50:48.158Z,10.17
2023-04-11T10:53:37.098Z,9.97
2023-04-11T10:56:10.135Z,9.99
2023-04-11T10:58:40.290Z,9.84
2023-04-11T11:01:26.347Z,9.90
2023-04-11T11:04:01.040Z,10.07
2023-04-11T11:09:23.636Z,10.32
2023-04-11T11:15:13.359Z,10.21
2023-04-11T11:17:42.692Z,10.30
2023-04-11T11:20:19.835Z,10.30
2023-04-11T11:23:10.344Z,10.15
2023-04-11T11:25:38.676Z,9.86
2023-04-11T11:28:14.727Z,9.94
2023-04-11T11:31:13.664Z,10.05
2023-04-11T11:33:44.489Z,10.11
2023-04-11T11:36:15.737Z,10.40
2023-04-11T11:38:42.825Z,10.53
2023-04-11T11:41:11.000Z,10.30
2023-04-11T11:43:38.997Z,10.49
2023-04-11T11:46:14.329Z,10.30
2023-04-11T11:48:43.880Z,10.52
2023-04-11T11:51:44.563Z,10.57
2023-04-11T11:54:12.873Z,10.55
2023-04-11T11:56:41.591Z,10.62
2023-04-11T11:59:34.814Z,10.15
2023-04-11T12:02:27.670Z,10.12
2023-04-11T12:05:04.127Z,10.04
2023-04-11T12:07:43.538Z,9.99
2023-04-11T12:10:16.621Z,10.24
2023-04-11T12:12:53.096Z,10.11
2023-04-11T12:15:22.787Z,10.28
2023-04-11T12:17:57.506Z,10.18
2023-04-11T12:20:26.701Z,10.40
2023-04-11T12:22:58.863Z,10.05
2023-04-11T12:25:28.048Z,10.19
2023-04-11T12:27:54.885Z,10.37
2023-04-11T12:30:22.830Z,10.40
2023-04-11T12:32:50.916Z,10.50
2023-04-11T12:35:18.956Z,10.02
2023-04-11T12:37:46.741Z,10.17
2023-04-11T12:40:15.619Z,10.28
2023-04-11T12:46:00.756Z,10.07
2023-04-11T12:48:33.103Z,10.25
2023-04-11T12:51:00.823Z,10.24
2023-04-11T12:53:28.668Z,10.24
2023-04-11T12:55:56.898Z,10.55
2023-04-11T12:58:24.699Z,10.59
2023-04-11T13:00:57.960Z,10.64
2023-04-11T13:03:24.826Z,10.80
2023-04-11T13:05:52.755Z,10.90
2023-04-11T13:08:20.682Z,10.90
2023-04-11T13:10:48.767Z,11.16
2023-04-11T13:13:18.615Z,11.18
2023-04-11T13:15:46.775Z,11.36
2023-04-11T13:18:39.155Z,11.55
2023-04-11T13:21:12.869Z,11.65
2023-04-11T13:23:40.759Z,11.49
2023-04-11T13:26:38.163Z,11.57
2023-04-11T13:29:09.576Z,11.65
2023-04-11T13:34:54.654Z,11.39
2023-04-11T13:40:15.346Z,11.30
2023-04-11T13:42:42.704Z,11.19
2023-04-11T13:45:11.206Z,11.39
2023-04-11T13:47:39.190Z,11.28
2023-04-11T13:50:17.855Z,10.92
2023-04-11T13:52:49.882Z,11.19
2023-04-11T13:55:19.390Z,10.67
2023-04-11T13:57:46.877Z,10.79
2023-04-11T14:00:15.247Z,10.60
2023-04-11T14:02:48.704Z,10.69
2023-04-11T14:05:16.661Z,10.40
2023-04-11T14:07:49.506Z,10.33
2023-04-11T14:10:16.747Z,10.24
2023-04-11T14:12:44.802Z,10.29
2023-04-11T14:15:15.307Z,10.01
2023-04-11T14:17:44.000Z,10.15
2023-04-11T14:23:03.283Z,10.08
2023-04-11T14:26:01.751Z,10.04
2023-04-11T14:28:28.854Z,10.17
2023-04-11T14:31:22.173Z,10.04
2023-04-11T14:33:51.325Z,10.22
2023-04-11T14:36:18.950Z,10.22
2023-04-11T14:38:46.814Z,10.29
2023-04-11T14:41:14.901Z,10.30
2023-04-11T14:43:52.001Z,10.35
2023-04-11T14:46:18.842Z,9.90
2023-04-11T14:48:47.015Z,10.24
2023-04-11T14:51:38.747Z,10.30
2023-04-11T14:54:07.408Z,10.26
2023-04-11T14:56:34.976Z,10.11
2023-04-11T14:59:28.738Z,10.21
2023-04-11T15:01:57.377Z,10.33
2023-04-11T15:04:24.924Z,10.42
2023-04-11T15:06:58.482Z,10.37
2023-04-11T15:09:27.410Z,10.46
2023-04-11T15:11:54.797Z,10.49
2023-04-11T15:14:29.234Z,10.30
2023-04-11T15:16:56.839Z,10.18
2023-04-11T15:19:25.641Z,10.26
2023-04-11T15:21:53.052Z,10.21
2023-04-11T15:24:21.748Z,10.28
2023-04-11T15:26:48.816Z,10.17
2023-04-11T15:29:16.743Z,9.86
2023-04-11T15:31:49.811Z,9.74
2023-04-11T15:34:17.477Z,9.81
2023-04-11T15:36:45.230Z,9.70
2023-04-11T15:39:12.831Z,9.90
2023-04-11T15:47:50.735Z,9.73
2023-04-11T15:50:26.520Z,9.74
2023-04-11T15:52:57.724Z,9.83
2023-04-11T15:58:16.996Z,9.71
2023-04-11T16:00:47.065Z,9.66
2023-04-11T16:03:23.774Z,9.64
2023-04-11T16:08:50.601Z,9.73
2023-04-11T16:11:21.115Z,9.79
2023-04-11T16:13:48.710Z,9.88
2023-04-11T16:16:16.918Z,9.88
2023-04-11T16:18:44.662Z,9.83
2023-04-11T16:21:15.104Z,9.66
2023-04-11T16:26:35.484Z,9.61
2023-04-11T16:29:07.881Z,9.75
2023-04-11T16:31:35.796Z,9.74
2023-04-11T16:34:04.329Z,9.81
2023-04-11T16:36:36.227Z,9.81
2023-04-11T16:39:11.595Z,9.84
2023-04-11T16:41:42.704Z,9.83
2023-04-11T16:44:39.318Z,9.86
2023-04-11T16:47:45.728Z,9.90
2023-04-11T16:53:04.940Z,9.79
2023-04-11T17:01:42.116Z,9.87
2023-04-11T17:04:16.905Z,9.88
2023-04-11T17:06:49.841Z,9.94
2023-04-11T17:09:55.049Z,9.99
2023-04-11T17:12:49.097Z,9.87
2023-04-11T17:15:16.711Z,9.66
2023-04-11T17:17:44.733Z,9.56
2023-04-11T17:20:12.788Z,9.54
2023-04-11T17:22:43.145Z,9.56
2023-04-11T17:25:11.436Z,9.63
2023-04-11T17:27:39.954Z,9.60
2023-04-11T17:30:18.677Z,9.43
2023-04-11T17:33:10.791Z,9.53
2023-04-11T17:35:40.498Z,9.44
2023-04-11T17:38:19.831Z,9.42
2023-04-11T17:40:46.702Z,9.39
2023-04-11T17:43:39.865Z,9.36
2023-04-11T17:46:17.791Z,9.44
2023-04-11T17:48:44.962Z,9.32
2023-04-11T17:51:15.592Z,9.36
2023-04-11T17:53:45.072Z,9.38
2023-04-11T17:56:12.842Z,9.39
2023-04-11T17:58:50.304Z,9.31
2023-04-11T18:01:20.848Z,9.29
2023-04-11T18:03:50.345Z,9.24
2023-04-11T18:06:19.199Z,9.18
2023-04-11T18:08:53.316Z,9.21
2023-04-11T18:11:25.964Z,9.18
2023-04-11T18:13:55.411Z,9.07
2023-04-11T18:16:22.987Z,9.03
2023-04-11T18:18:50.663Z,9.03
2023-04-11T18:21:25.893Z,8.90
2023-04-11T18:23:52.957Z,8.94
2023-04-11T18:26:20.992Z,8.95
2023-04-11T18:28:48.662Z,8.84
2023-04-11T18:31:16.875Z,8.84
2023-04-11T18:34:13.136Z,8.73
2023-04-11T18:36:41.013Z,8.81
2023-04-11T18:39:14.036Z,8.74
2023-04-11T18:41:49.484Z,8.64
2023-04-11T18:44:16.669Z,8.64
2023-04-11T18:46:56.685Z,8.56
2023-04-11T18:49:48.999Z,8.59
2023-04-11T18:52:16.858Z,8.59
2023-04-11T18:54:48.905Z,8.54
2023-04-11T18:57:16.736Z,8.46
2023-04-11T19:06:45.395Z,8.30
2023-04-11T19:13:02.972Z,8.18
2023-04-11T19:15:55.990Z,8.10
2023-04-11T19:18:22.738Z,8.08
2023-04-11T19:20:54.858Z,8.05
2023-04-11T19:23:27.929Z,8.04
2023-04-11T19:26:06.474Z,8.02
2023-04-11T19:28:48.959Z,7.94
2023-04-11T19:31:17.120Z,7.98
2023-04-11T19:34:10.895Z,7.84
2023-04-11T19:36:38.779Z,7.81
2023-04-11T19:39:37.305Z,7.80
2023-04-11T19:42:52.264Z,7.81
2023-04-11T19:45:45.904Z,7.70
2023-04-11T19:48:12.746Z,7.74
2023-04-11T19:50:40.895Z,7.57
2023-04-11T19:53:17.694Z,7.59
2023-04-11T19:55:53.846Z,7.50
2023-04-11T19:58:26.724Z,7.46
2023-04-11T20:00:59.751Z,7.45
2023-04-11T20:03:27.682Z,7.50
2023-04-11T20:05:55.164Z,7.46
2023-04-11T20:08:23.033Z,7.42
2023-04-11T20:10:51.980Z,7.45
2023-04-11T20:13:23.850Z,7.35
2023-04-11T20:15:51.254Z,7.26
2023-04-11T20:18:19.891Z,7.25
2023-04-11T20:20:49.454Z,7.17
2023-04-11T20:23:42.819Z,7.11
2023-04-11T20:26:10.888Z,7.01
2023-04-11T20:28:44.461Z,7.04
2023-04-11T20:31:12.737Z,7.03
2023-04-11T20:33:41.030Z,6.84
2023-04-11T20:36:35.925Z,6.76
2023-04-11T20:39:08.781Z,6.80
2023-04-11T20:41:40.578Z,6.76
2023-04-11T20:44:13.326Z,6.77
2023-04-11T20:46:41.908Z,6.75
2023-04-11T20:49:15.443Z,6.66
2023-04-11T20:51:43.675Z,6.57
2023-04-11T20:57:08.740Z,6.54
2023-04-11T20:59:39.395Z,6.41
2023-04-11T21:02:06.854Z,6.46
2023-04-11T21:04:34.843Z,6.46
2023-04-11T21:07:02.963Z,6.49
2023-04-11T21:09:30.687Z,6.62
2023-04-11T21:11:58.759Z,6.38
2023-04-11T21:14:26.700Z,6.38
2023-04-11T21:16:54.719Z,6.39
2023-04-11T21:22:45.154Z,6.21
2023-04-11T21:25:12.777Z,6.36
2023-04-11T21:28:09.770Z,6.26
2023-04-11T21:30:36.929Z,6.18
2023-04-11T21:33:04.842Z,6.21
2023-04-11T21:35:32.759Z,6.12
2023-04-11T21:38:00.845Z,6.11
2023-04-11T21:40:28.887Z,6.05
2023-04-11T21:42:56.758Z,6.05
2023-04-11T21:45:24.739Z,6.10
2023-04-11T21:47:52.929Z,6.08
2023-04-11T21:50:20.821Z,6.10
2023-04-11T21:52:48.846Z,5.98
2023-04-11T21:55:21.698Z,5.98
2023-04-11T21:57:55.588Z,5.94
2023-04-11T22:00:22.941Z,5.93
2023-04-11T22:02:51.131Z,5.86
2023-04-11T22:05:19.316Z,5.65
2023-04-11T22:07:46.837Z,5.70
2023-04-11T22:10:23.813Z,5.82
2023-04-11T22:12:58.557Z,5.72
2023-04-11T22:15:26.699Z,5.69
2023-04-11T22:18:26.181Z,5.69
2023-04-11T22:21:03.046Z,5.73
2023-04-11T22:23:34.690Z,5.59
2023-04-11T22:28:56.752Z,5.60
2023-04-11T22:34:24.321Z,5.58
2023-04-11T22:37:16.807Z,5.58
2023-04-11T22:39:50.185Z,5.59
2023-04-11T22:42:18.745Z,5.50
2023-04-11T22:44:50.710Z,5.50
2023-04-11T22:47:21.788Z,5.48
2023-04-11T22:49:48.661Z,5.42
2023-04-11T22:52:46.075Z,5.40
2023-04-11T22:55:17.800Z,5.42
2023-04-11T22:57:44.826Z,5.39
2023-04-11T23:00:17.020Z,5.31
2023-04-11T23:02:45.148Z,5.36
2023-04-11T23:05:12.672Z,5.31
2023-04-11T23:07:40.721Z,5.31
2023-04-11T23:10:10.565Z,5.24
2023-04-11T23:18:46.639Z,5.19
2023-04-11T23:21:18.765Z,5.21
2023-04-11T23:23:52.323Z,5.24
2023-04-11T23:26:27.543Z,5.14
2023-04-11T23:28:55.493Z,5.12
2023-04-11T23:31:23.081Z,5.08
2023-04-11T23:33:50.623Z,5.08
2023-04-11T23:36:18.701Z,5.08
2023-04-11T23:44:54.958Z,4.96
2023-04-11T23:47:51.951Z,4.93
2023-04-11T23:50:19.156Z,4.97
2023-04-11T23:52:47.468Z,4.91
2023-04-11T23:55:26.700Z,4.91
2023-04-11T23:57:58.672Z,4.81
